createdAt,value
2017-04-24T00:00:47.723Z,58.8
2017-04-24T00:01:49.523Z,58.7
2017-04-24T00:02:51.745Z,58.8
2017-04-24T00:03:53.995Z,58.7
2017-04-24T00:04:55.785Z,58.8
2017-04-24T00:05:57.620Z,58.8
2017-04-24T00:06:59.426Z,58.9
2017-04-24T00:08:01.233Z,58.8
2017-04-24T00:09:03.033Z,58.8
2017-04-24T00:10:04.828Z,58.9
2017-04-24T00:11:06.625Z,58.9
2017-04-24T00:12:08.420Z,58.9
2017-04-24T00:13:10.274Z,58.9
2017-04-24T00:14:12.127Z,58.9
2017-04-24T00:15:13.952Z,58.9
2017-04-24T00:16:15.741Z,58.9
2017-04-24T00:17:17.572Z,59
2017-04-24T00:18:19.414Z,58.9
2017-04-24T00:19:21.323Z,58.9
2017-04-24T00:20:23.153Z,59
2017-04-24T00:21:24.957Z,59
2017-04-24T00:22:26.777Z,59
2017-04-24T00:23:28.627Z,58.9
2017-04-24T00:24:30.426Z,58.8
2017-04-24T00:25:32.423Z,58.9
2017-04-24T00:26:34.284Z,58.9
2017-04-24T00:27:36.440Z,58.9
2017-04-24T00:28:38.333Z,58.9
2017-04-24T00:29:40.500Z,58.9
2017-04-24T00:30:42.305Z,58.9
2017-04-24T00:31:44.140Z,59
2017-04-24T00:32:45.966Z,58.9
2017-04-24T00:33:47.764Z,58.9
2017-04-24T00:34:49.558Z,58.9
2017-04-24T00:35:51.353Z,58.9
2017-04-24T00:36:53.198Z,59
2017-04-24T00:37:55.386Z,59
2017-04-24T00:38:57.286Z,58.9
2017-04-24T00:39:59.443Z,58.9
2017-04-24T00:41:01.440Z,58.9
2017-04-24T00:42:03.249Z,58.8
2017-04-24T00:43:05.055Z,58.8
2017-04-24T00:44:06.850Z,58.9
2017-04-24T00:45:08.646Z,58.8
2017-04-24T00:46:10.807Z,58.8
2017-04-24T00:47:12.606Z,58.8
2017-04-24T00:48:14.416Z,58.9
2017-04-24T00:49:16.236Z,58.9
2017-04-24T00:50:18.074Z,58.9
2017-04-24T00:51:19.957Z,58.9
2017-04-24T00:52:21.764Z,59
2017-04-24T00:53:24.094Z,59
2017-04-24T00:54:27.100Z,59.1
2017-04-24T00:55:28.964Z,59
2017-04-24T00:56:30.771Z,59
2017-04-24T00:57:32.568Z,59
2017-04-24T00:58:34.359Z,58.9
2017-04-24T00:59:36.498Z,58.9
2017-04-24T01:00:38.345Z,59
2017-04-24T01:01:40.498Z,59
2017-04-24T01:02:42.332Z,59.1
2017-04-24T01:03:44.145Z,59.1
2017-04-24T01:04:45.997Z,59
2017-04-24T01:05:47.899Z,58.9
2017-04-24T01:06:50.089Z,59
2017-04-24T01:07:51.919Z,59.1
2017-04-24T01:08:53.713Z,59.2
2017-04-24T01:09:55.514Z,59.2
2017-04-24T01:10:57.671Z,59.2
2017-04-24T01:11:59.460Z,59.2
2017-04-24T01:13:01.660Z,59.2
2017-04-24T01:14:03.454Z,59.2
2017-04-24T01:15:05.259Z,59.2
2017-04-24T01:16:07.061Z,59.2
2017-04-24T01:17:08.870Z,59.2
2017-04-24T01:18:10.666Z,59.2
2017-04-24T01:19:12.461Z,59.2
2017-04-24T01:20:14.258Z,59.2
2017-04-24T01:21:16.059Z,59.2
2017-04-24T01:22:18.150Z,59.2
2017-04-24T01:23:20.148Z,59.2
2017-04-24T01:24:22.963Z,59.3
2017-04-24T01:25:24.818Z,59.4
2017-04-24T01:26:26.623Z,59.3
2017-04-24T01:27:28.420Z,59.3
2017-04-24T01:28:30.590Z,59.3
2017-04-24T01:29:33.306Z,59.2
2017-04-24T01:30:35.302Z,59.2
2017-04-24T01:31:37.156Z,59.3
2017-04-24T01:32:38.993Z,59.3
2017-04-24T01:33:41.136Z,59.4
2017-04-24T01:34:42.979Z,59.4
2017-04-24T01:35:44.793Z,59.4
2017-04-24T01:36:46.588Z,59.4
2017-04-24T01:37:48.385Z,59.4
2017-04-24T01:38:50.182Z,59.4
2017-04-24T01:39:51.974Z,59.4
2017-04-24T01:40:53.821Z,59.5
2017-04-24T01:41:55.710Z,59.5
2017-04-24T01:42:57.849Z,59.4
2017-04-24T01:44:00.214Z,59.4
2017-04-24T01:45:02.015Z,59.4
2017-04-24T01:46:03.855Z,59.5
2017-04-24T01:47:05.728Z,59.5
2017-04-24T01:48:07.862Z,59.5
2017-04-24T01:49:09.724Z,59.5
2017-04-24T01:50:11.523Z,59.5
2017-04-24T01:51:13.677Z,59.6
2017-04-24T01:52:15.477Z,59.6
2017-04-24T01:53:17.282Z,59.6
2017-04-24T01:54:19.078Z,59.7
2017-04-24T01:55:20.879Z,59.7
2017-04-24T01:56:22.677Z,59.7
2017-04-24T01:57:24.473Z,59.5
2017-04-24T01:58:26.268Z,59.6
2017-04-24T01:59:28.065Z,59.5
2017-04-24T02:00:29.855Z,59.5
2017-04-24T02:01:32.009Z,59.6
2017-04-24T02:02:33.831Z,59.6
2017-04-24T02:03:35.831Z,59.6
2017-04-24T02:04:37.634Z,59.6
2017-04-24T02:05:39.435Z,59.6
2017-04-24T02:06:41.228Z,59.6
2017-04-24T02:07:43.024Z,59.8
2017-04-24T02:08:44.823Z,59.8
2017-04-24T02:09:46.958Z,59.7
2017-04-24T02:10:48.798Z,59.9
2017-04-24T02:11:50.605Z,59.8
2017-04-24T02:12:52.759Z,59.7
2017-04-24T02:13:54.581Z,59.7
2017-04-24T02:14:56.714Z,59.8
2017-04-24T02:15:58.844Z,59.8
2017-04-24T02:17:00.687Z,59.8
2017-04-24T02:18:02.536Z,59.9
2017-04-24T02:19:04.344Z,59.8
2017-04-24T02:20:06.143Z,59.8
2017-04-24T02:21:08.321Z,59.8
2017-04-24T02:22:10.115Z,59.9
2017-04-24T02:23:12.132Z,59.9
2017-04-24T02:24:14.297Z,59.9
2017-04-24T02:25:16.093Z,60
2017-04-24T02:26:17.915Z,59.9
2017-04-24T02:27:19.725Z,59.9
2017-04-24T02:28:21.529Z,60
2017-04-24T02:29:23.693Z,60
2017-04-24T02:30:25.508Z,60
2017-04-24T02:31:27.660Z,59.9
2017-04-24T02:32:29.488Z,60
2017-04-24T02:33:31.283Z,60
2017-04-24T02:34:33.076Z,60
2017-04-24T02:35:35.250Z,60
2017-04-24T02:36:37.073Z,60
2017-04-24T02:37:38.871Z,60
2017-04-24T02:38:41.003Z,60
2017-04-24T02:39:43.219Z,60
2017-04-24T02:40:45.418Z,60
2017-04-24T02:41:47.546Z,60
2017-04-24T02:42:49.928Z,60
2017-04-24T02:43:52.343Z,60
2017-04-24T02:44:54.468Z,60
2017-04-24T02:45:56.267Z,60
2017-04-24T02:46:58.115Z,60
2017-04-24T02:47:59.907Z,60
2017-04-24T02:49:02.273Z,60
2017-04-24T02:50:04.129Z,60
2017-04-24T02:51:05.925Z,60
2017-04-24T02:52:08.119Z,60
2017-04-24T02:53:25.487Z,60
2017-04-24T02:54:27.403Z,60
2017-04-24T02:55:29.260Z,60
2017-04-24T02:56:31.095Z,60
2017-04-24T02:57:32.895Z,60
2017-04-24T02:58:34.712Z,60
2017-04-24T02:59:36.838Z,60
2017-04-24T03:00:38.685Z,60
2017-04-24T03:01:40.491Z,60
2017-04-24T03:02:42.299Z,60
2017-04-24T03:03:44.100Z,60
2017-04-24T03:04:45.897Z,60
2017-04-24T03:05:47.692Z,60
2017-04-24T03:06:49.484Z,60
2017-04-24T03:07:51.634Z,60
2017-04-24T03:08:53.773Z,60
2017-04-24T03:09:55.637Z,60.1
2017-04-24T03:10:57.450Z,60.1
2017-04-24T03:11:59.249Z,60.1
2017-04-24T03:13:01.049Z,60.2
2017-04-24T03:14:02.839Z,60
2017-04-24T03:15:04.638Z,60.1
2017-04-24T03:16:06.432Z,60
2017-04-24T03:17:08.278Z,60.1
2017-04-24T03:18:10.366Z,60
2017-04-24T03:19:12.550Z,60
2017-04-24T03:20:14.388Z,60
2017-04-24T03:21:16.521Z,60.1
2017-04-24T03:22:18.394Z,60.1
2017-04-24T03:23:20.530Z,60.2
2017-04-24T03:24:22.759Z,60.2
2017-04-24T03:25:24.938Z,60.2
2017-04-24T03:26:26.736Z,60
2017-04-24T03:27:28.541Z,60
2017-04-24T03:28:30.694Z,60
2017-04-24T03:29:32.526Z,60.1
2017-04-24T03:30:34.331Z,60
2017-04-24T03:31:36.134Z,60
2017-04-24T03:32:37.938Z,60
2017-04-24T03:33:40.474Z,60
2017-04-24T03:34:42.341Z,60
2017-04-24T03:35:44.138Z,59.9
2017-04-24T03:36:45.937Z,59.9
2017-04-24T03:37:48.418Z,59.9
2017-04-24T03:38:50.630Z,60
2017-04-24T03:39:52.472Z,60
2017-04-24T03:40:54.292Z,60
2017-04-24T03:41:56.100Z,60
2017-04-24T03:42:57.896Z,60
2017-04-24T03:43:59.695Z,60
2017-04-24T03:45:01.492Z,60
2017-04-24T03:46:03.299Z,60
2017-04-24T03:47:05.098Z,60.1
2017-04-24T03:48:06.923Z,60
2017-04-24T03:49:08.714Z,60.1
2017-04-24T03:50:10.517Z,60.1
2017-04-24T03:51:12.654Z,60.2
2017-04-24T03:52:14.454Z,60.3
2017-04-24T03:53:16.253Z,60.2
2017-04-24T03:54:18.091Z,60
2017-04-24T03:55:20.117Z,60
2017-04-24T03:56:22.126Z,60
2017-04-24T03:57:23.984Z,60
2017-04-24T03:58:25.797Z,60
2017-04-24T03:59:28.491Z,60
2017-04-24T04:00:30.838Z,60.1
2017-04-24T04:01:32.628Z,60.3
2017-04-24T04:02:34.459Z,60.1
2017-04-24T04:03:36.254Z,60
2017-04-24T04:04:38.386Z,60.1
2017-04-24T04:05:40.213Z,60
2017-04-24T04:06:42.005Z,60
2017-04-24T04:07:43.804Z,60
2017-04-24T04:08:45.932Z,60
2017-04-24T04:09:47.731Z,60.1
2017-04-24T04:10:49.525Z,60.1
2017-04-24T04:11:51.334Z,60.2
2017-04-24T04:12:53.146Z,60.2
2017-04-24T04:13:55.814Z,60.2
2017-04-24T04:14:58.686Z,60.2
2017-04-24T04:16:00.817Z,60.3
2017-04-24T04:17:02.684Z,60.4
2017-04-24T04:18:04.479Z,60.5
2017-04-24T04:19:06.476Z,60.5
2017-04-24T04:20:08.299Z,60.6
2017-04-24T04:21:10.141Z,60.5
2017-04-24T04:22:12.837Z,60.5
2017-04-24T04:23:15.024Z,60.5
2017-04-24T04:24:17.760Z,60.4
2017-04-24T04:25:19.623Z,60.5
2017-04-24T04:26:21.412Z,60.4
2017-04-24T04:27:23.624Z,60.4
2017-04-24T04:28:25.411Z,60.5
2017-04-24T04:29:27.235Z,60.5
2017-04-24T04:30:29.035Z,60.5
2017-04-24T04:31:31.147Z,60.5
2017-04-24T04:32:32.991Z,60.5
2017-04-24T04:33:34.835Z,60.4
2017-04-24T04:34:36.643Z,60.5
2017-04-24T04:35:38.804Z,60.5
2017-04-24T04:36:55.987Z,60.4
2017-04-24T04:37:58.461Z,60.4
2017-04-24T04:39:00.283Z,60.3
2017-04-24T04:40:02.073Z,60.3
2017-04-24T04:41:04.282Z,60.5
2017-04-24T04:42:06.284Z,60.4
2017-04-24T04:43:09.126Z,60.4
2017-04-24T04:44:11.130Z,60.5
2017-04-24T04:45:12.950Z,60.5
2017-04-24T04:46:14.770Z,60.5
2017-04-24T04:47:16.562Z,60.5
2017-04-24T04:48:18.719Z,60.5
2017-04-24T04:49:20.898Z,60.5
2017-04-24T04:50:22.770Z,60.6
2017-04-24T04:51:24.596Z,60.6
2017-04-24T04:52:26.392Z,60.5
2017-04-24T04:53:28.187Z,60.5
2017-04-24T04:54:29.985Z,60.4
2017-04-24T04:55:32.064Z,60.4
2017-04-24T04:56:33.907Z,60.4
2017-04-24T04:57:35.739Z,60.4
2017-04-24T04:58:37.901Z,60.4
2017-04-24T04:59:39.708Z,60.6
2017-04-24T05:00:41.501Z,60.6
2017-04-24T05:01:43.292Z,60.7
2017-04-24T05:02:45.491Z,60.5
2017-04-24T05:03:47.645Z,60.5
2017-04-24T05:04:49.828Z,60.5
2017-04-24T05:05:51.665Z,60.3
2017-04-24T05:06:53.473Z,60.3
2017-04-24T05:07:55.267Z,60.3
2017-04-24T05:08:57.066Z,60.2
2017-04-24T05:09:58.857Z,60.4
2017-04-24T05:11:00.946Z,60.3
2017-04-24T05:12:02.940Z,60.2
2017-04-24T05:13:04.857Z,60.4
2017-04-24T05:14:06.657Z,60.5
2017-04-24T05:15:08.793Z,60.5
2017-04-24T05:16:10.657Z,60.5
2017-04-24T05:17:12.455Z,60.6
2017-04-24T05:18:14.595Z,60.5
2017-04-24T05:19:16.397Z,60.5
2017-04-24T05:20:18.547Z,60.6
2017-04-24T05:21:20.351Z,60.5
2017-04-24T05:22:22.154Z,60.5
2017-04-24T05:23:24.148Z,60.7
2017-04-24T05:24:26.153Z,60.6
2017-04-24T05:25:28.148Z,60.6
2017-04-24T05:26:29.950Z,60.6
2017-04-24T05:27:31.758Z,60.6
2017-04-24T05:28:33.556Z,60.7
2017-04-24T05:29:35.889Z,60.8
2017-04-24T05:30:37.736Z,60.8
2017-04-24T05:31:39.538Z,60.8
2017-04-24T05:32:41.340Z,60.8
2017-04-24T05:33:43.137Z,60.8
2017-04-24T05:34:45.322Z,60.9
2017-04-24T05:35:47.151Z,60.7
2017-04-24T05:36:48.987Z,60.6
2017-04-24T05:37:50.795Z,60.7
2017-04-24T05:38:52.651Z,60.8
2017-04-24T05:39:54.545Z,60.8
2017-04-24T05:40:56.345Z,60.7
2017-04-24T05:41:58.366Z,60.7
2017-04-24T05:43:00.274Z,60.6
2017-04-24T05:44:02.637Z,60.6
2017-04-24T05:45:04.457Z,60.6
2017-04-24T05:46:06.260Z,60.6
2017-04-24T05:47:08.392Z,60.7
2017-04-24T05:48:10.529Z,60.7
2017-04-24T05:49:12.531Z,60.8
2017-04-24T05:50:14.396Z,60.6
2017-04-24T05:51:16.936Z,60.7
2017-04-24T05:52:18.786Z,60.6
2017-04-24T05:53:20.598Z,60.5
2017-04-24T05:54:22.420Z,60.4
2017-04-24T05:55:24.214Z,60.5
2017-04-24T05:56:26.007Z,60.5
2017-04-24T05:57:28.138Z,60.4
2017-04-24T05:58:29.938Z,60.4
2017-04-24T05:59:31.748Z,60.3
2017-04-24T06:00:33.546Z,60.5
2017-04-24T06:01:35.370Z,60.5
2017-04-24T06:02:37.191Z,60.5
2017-04-24T06:03:38.988Z,60.7
2017-04-24T06:04:40.787Z,60.7
2017-04-24T06:05:42.596Z,60.6
2017-04-24T06:06:44.444Z,60.5
2017-04-24T06:07:46.293Z,60.5
2017-04-24T06:08:48.104Z,60.5
2017-04-24T06:09:50.462Z,60.5
2017-04-24T06:10:52.302Z,60.4
2017-04-24T06:11:54.094Z,60.4
2017-04-24T06:12:55.908Z,60.4
2017-04-24T06:13:57.700Z,60.4
2017-04-24T06:14:59.502Z,60.5
2017-04-24T06:16:01.301Z,60.5
2017-04-24T06:17:03.115Z,60.4
2017-04-24T06:18:04.917Z,60.4
2017-04-24T06:19:06.709Z,60.5
2017-04-24T06:20:08.861Z,60.3
2017-04-24T06:21:10.656Z,60.3
2017-04-24T06:22:12.790Z,60.3
2017-04-24T06:23:14.605Z,60.3
2017-04-24T06:24:16.441Z,60.3
2017-04-24T06:25:18.299Z,60.1
2017-04-24T06:26:20.156Z,60.1
2017-04-24T06:27:21.996Z,60.2
2017-04-24T06:28:24.160Z,60.1
2017-04-24T06:29:26.361Z,60
2017-04-24T06:30:28.836Z,60.1
2017-04-24T06:31:31.488Z,60.2
2017-04-24T06:32:34.479Z,60.1
2017-04-24T06:33:36.955Z,60
2017-04-24T06:34:39.198Z,60.2
2017-04-24T06:35:42.020Z,60.2
2017-04-24T06:36:44.490Z,60.2
2017-04-24T06:37:47.304Z,60.1
2017-04-24T06:38:50.106Z,60
2017-04-24T06:39:53.132Z,60.1
2017-04-24T06:40:55.582Z,60
2017-04-24T06:41:57.757Z,60
2017-04-24T06:42:59.558Z,60
2017-04-24T06:44:01.362Z,60
2017-04-24T06:45:03.167Z,60
2017-04-24T06:46:04.995Z,60
2017-04-24T06:47:06.996Z,60.2
2017-04-24T06:48:08.848Z,60.1
2017-04-24T06:49:10.642Z,60
2017-04-24T06:50:12.868Z,60.1
2017-04-24T06:51:15.408Z,60.1
2017-04-24T06:52:17.256Z,60.1
2017-04-24T06:53:19.156Z,60.2
2017-04-24T06:54:21.298Z,60
2017-04-24T06:55:23.124Z,60
2017-04-24T06:56:25.263Z,60
2017-04-24T06:57:27.361Z,59.9
2017-04-24T06:58:29.367Z,59.9
2017-04-24T06:59:31.224Z,59.9
2017-04-24T07:00:33.039Z,59.9
2017-04-24T07:01:34.842Z,59.9
2017-04-24T07:02:36.643Z,59.8
2017-04-24T07:03:38.790Z,59.9
2017-04-24T07:04:40.585Z,59.7
2017-04-24T07:05:42.413Z,59.7
2017-04-24T07:06:44.210Z,59.7
2017-04-24T07:07:46.308Z,59.5
2017-04-24T07:08:48.514Z,59.5
2017-04-24T07:09:50.522Z,59.6
2017-04-24T07:10:52.371Z,59.7
2017-04-24T07:11:54.397Z,59.7
2017-04-24T07:12:56.201Z,59.9
2017-04-24T07:13:58.047Z,59.8
2017-04-24T07:15:00.181Z,59.7
2017-04-24T07:16:02.267Z,59.6
2017-04-24T07:17:04.268Z,59.6
2017-04-24T07:18:06.126Z,59.4
2017-04-24T07:19:07.995Z,59.3
2017-04-24T07:20:09.874Z,59.5
2017-04-24T07:21:11.711Z,59.5
2017-04-24T07:22:13.514Z,59.7
2017-04-24T07:23:15.515Z,59.6
2017-04-24T07:24:17.702Z,59.7
2017-04-24T07:25:19.902Z,59.6
2017-04-24T07:26:21.706Z,59.6
2017-04-24T07:27:23.506Z,59.7
2017-04-24T07:28:25.304Z,59.6
2017-04-24T07:29:27.101Z,59.7
2017-04-24T07:30:28.912Z,59.7
2017-04-24T07:31:31.053Z,59.6
2017-04-24T07:32:32.887Z,58.7
2017-04-24T07:33:34.678Z,58.6
2017-04-24T07:34:36.486Z,58.5
2017-04-24T07:35:38.277Z,58.5
2017-04-24T07:36:40.074Z,58.5
2017-04-24T07:37:42.206Z,58.5
2017-04-24T07:38:44.045Z,58.6
2017-04-24T07:39:45.910Z,58.6
2017-04-24T07:40:47.800Z,58.8
2017-04-24T07:41:49.990Z,58.8
2017-04-24T07:42:52.326Z,58.8
2017-04-24T07:43:54.168Z,58.7
2017-04-24T07:44:56.025Z,58.8
2017-04-24T07:45:57.826Z,58.9
2017-04-24T07:46:59.626Z,58.8
2017-04-24T07:48:01.567Z,58.7
2017-04-24T07:49:03.371Z,58.5
2017-04-24T07:50:05.189Z,58.3
2017-04-24T07:51:06.993Z,58.4
2017-04-24T07:52:09.089Z,58.4
2017-04-24T07:53:10.993Z,58.4
2017-04-24T07:54:12.829Z,58.5
2017-04-24T07:55:14.632Z,58.4
2017-04-24T07:56:16.460Z,58.4
2017-04-24T07:57:18.319Z,58.2
2017-04-24T07:58:20.138Z,58.2
2017-04-24T07:59:21.941Z,58
2017-04-24T08:00:24.038Z,58
2017-04-24T08:01:26.041Z,58
2017-04-24T08:02:27.897Z,57.9
2017-04-24T08:03:29.727Z,57.8
2017-04-24T08:04:31.524Z,57.7
2017-04-24T08:05:33.719Z,57.8
2017-04-24T08:06:35.521Z,57.9
2017-04-24T08:07:37.860Z,58
2017-04-24T08:08:39.708Z,57.9
2017-04-24T08:09:41.503Z,57.9
2017-04-24T08:10:43.306Z,57.9
2017-04-24T08:11:45.107Z,57.8
2017-04-24T08:12:46.907Z,57.8
2017-04-24T08:13:48.708Z,57.6
2017-04-24T08:14:50.519Z,57.5
2017-04-24T08:15:52.316Z,57.5
2017-04-24T08:16:54.117Z,57.6
2017-04-24T08:17:55.919Z,57.5
2017-04-24T08:18:57.771Z,57.6
2017-04-24T08:19:59.626Z,57.6
2017-04-24T08:21:01.426Z,57.6
2017-04-24T08:22:03.237Z,57.8
2017-04-24T08:23:05.387Z,57.9
2017-04-24T08:24:07.196Z,57.9
2017-04-24T08:25:09.003Z,57.8
2017-04-24T08:26:10.805Z,57.8
2017-04-24T08:27:12.611Z,57.6
2017-04-24T08:28:14.410Z,57.6
2017-04-24T08:29:16.209Z,57.6
2017-04-24T08:30:18.006Z,57.7
2017-04-24T08:31:19.813Z,57.8
2017-04-24T08:32:22.340Z,57.8
2017-04-24T08:33:24.143Z,57.7
2017-04-24T08:34:25.958Z,57.7
2017-04-24T08:35:27.771Z,57.7
2017-04-24T08:36:29.591Z,57.7
2017-04-24T08:37:31.390Z,57.7
2017-04-24T08:38:33.186Z,57.9
2017-04-24T08:39:35.670Z,57.9
2017-04-24T08:40:37.530Z,57.8
2017-04-24T08:41:39.331Z,57.8
2017-04-24T08:42:41.134Z,57.9
2017-04-24T08:43:42.938Z,57.9
2017-04-24T08:44:45.070Z,57.9
2017-04-24T08:45:46.908Z,57.9
2017-04-24T08:46:48.724Z,58
2017-04-24T08:47:50.528Z,58
2017-04-24T08:48:52.337Z,57.9
2017-04-24T08:49:54.140Z,57.8
2017-04-24T08:50:56.274Z,58
2017-04-24T08:51:58.074Z,58
2017-04-24T08:52:59.881Z,57.9
2017-04-24T08:54:02.021Z,57.7
2017-04-24T08:55:03.837Z,57.6
2017-04-24T08:56:05.648Z,57.6
2017-04-24T08:57:07.451Z,57.6
2017-04-24T08:58:09.251Z,57.4
2017-04-24T08:59:11.049Z,57.5
2017-04-24T09:00:12.849Z,57.5
2017-04-24T09:01:14.646Z,57.5
2017-04-24T09:02:16.666Z,57.6
2017-04-24T09:03:18.871Z,57.6
2017-04-24T09:04:21.015Z,57.6
2017-04-24T09:05:23.175Z,57.9
2017-04-24T09:06:25.357Z,57.9
2017-04-24T09:07:27.160Z,57.8
2017-04-24T09:08:28.964Z,57.8
2017-04-24T09:09:30.761Z,57.7
2017-04-24T09:10:32.563Z,57.8
2017-04-24T09:11:34.371Z,57.7
2017-04-24T09:12:36.714Z,58
2017-04-24T09:13:38.523Z,58
2017-04-24T09:14:40.776Z,58
2017-04-24T09:15:42.578Z,58
2017-04-24T09:16:44.432Z,57.7
2017-04-24T09:17:46.307Z,57.5
2017-04-24T09:18:48.126Z,57.4
2017-04-24T09:19:50.297Z,57.4
2017-04-24T09:20:52.394Z,57.4
2017-04-24T09:21:54.259Z,57.4
2017-04-24T09:22:56.066Z,57.4
2017-04-24T09:23:57.863Z,57.4
2017-04-24T09:24:59.688Z,57.4
2017-04-24T09:26:01.491Z,57.4
2017-04-24T09:27:03.301Z,57.2
2017-04-24T09:28:05.107Z,57.2
2017-04-24T09:29:06.910Z,57.1
2017-04-24T09:30:09.058Z,56.9
2017-04-24T09:31:10.862Z,56.8
2017-04-24T09:32:12.700Z,56.8
2017-04-24T09:33:14.504Z,56.9
2017-04-24T09:34:16.369Z,56.8
2017-04-24T09:35:18.218Z,56.8
2017-04-24T09:36:20.314Z,56.8
2017-04-24T09:37:22.341Z,56.7
2017-04-24T09:38:24.200Z,56.6
2017-04-24T09:39:26.298Z,56.6
2017-04-24T09:40:28.505Z,56.4
2017-04-24T09:41:30.508Z,56.4
2017-04-24T09:42:32.362Z,56.3
2017-04-24T09:43:34.707Z,56.2
2017-04-24T09:44:36.547Z,56.1
2017-04-24T09:45:38.366Z,56.3
2017-04-24T09:46:40.228Z,56.3
2017-04-24T09:47:42.077Z,56.4
2017-04-24T09:48:44.260Z,56.4
2017-04-24T09:49:46.119Z,56.3
2017-04-24T09:50:47.917Z,56.4
2017-04-24T09:51:49.723Z,56.4
2017-04-24T09:52:51.523Z,56.5
2017-04-24T09:53:53.326Z,56.6
2017-04-24T09:54:55.430Z,56.7
2017-04-24T09:55:57.432Z,56.7
2017-04-24T09:56:59.303Z,56.8
2017-04-24T09:58:01.472Z,56.7
2017-04-24T09:59:03.639Z,56.6
2017-04-24T10:00:05.466Z,56.5
2017-04-24T10:01:07.283Z,56.5
2017-04-24T10:02:09.134Z,56.5
2017-04-24T10:03:11.415Z,56.4
2017-04-24T10:04:13.260Z,56.4
2017-04-24T10:05:15.104Z,56.3
2017-04-24T10:06:16.903Z,56.3
2017-04-24T10:07:18.710Z,56.4
2017-04-24T10:08:20.518Z,56.4
2017-04-24T10:09:22.668Z,56.4
2017-04-24T10:10:24.510Z,56.4
2017-04-24T10:11:26.316Z,56.4
2017-04-24T10:12:28.235Z,56.4
2017-04-24T10:13:30.090Z,56.6
2017-04-24T10:14:31.935Z,56.8
2017-04-24T10:15:33.781Z,56.9
2017-04-24T10:16:35.588Z,56.8
2017-04-24T10:17:37.395Z,56.8
2017-04-24T10:18:39.196Z,56.6
2017-04-24T10:19:41.287Z,56.5
2017-04-24T10:20:43.149Z,56.3
2017-04-24T10:21:44.969Z,56
2017-04-24T10:22:46.773Z,56
2017-04-24T10:23:49.012Z,56
2017-04-24T10:24:51.154Z,56
2017-04-24T10:25:53.255Z,56
2017-04-24T10:26:55.123Z,55.9
2017-04-24T10:27:56.975Z,56
2017-04-24T10:28:58.781Z,56.1
2017-04-24T10:30:00.937Z,56.2
2017-04-24T10:31:02.740Z,56.1
2017-04-24T10:32:04.541Z,56
2017-04-24T10:33:06.348Z,56.2
2017-04-24T10:34:08.151Z,56.2
2017-04-24T10:35:09.957Z,56.3
2017-04-24T10:36:12.095Z,56.5
2017-04-24T10:37:13.921Z,56.8
2017-04-24T10:38:15.738Z,57
2017-04-24T10:39:17.876Z,56.8
2017-04-24T10:40:19.684Z,56.8
2017-04-24T10:41:21.487Z,56.9
2017-04-24T10:42:23.303Z,57
2017-04-24T10:43:25.443Z,57
2017-04-24T10:44:27.266Z,56.4
2017-04-24T10:45:29.415Z,56.4
2017-04-24T10:46:31.237Z,56
2017-04-24T10:47:33.056Z,55.9
2017-04-24T10:48:34.871Z,55.7
2017-04-24T10:49:36.690Z,55.4
2017-04-24T10:50:38.499Z,55.2
2017-04-24T10:51:40.306Z,55
2017-04-24T10:52:42.458Z,54.9
2017-04-24T10:53:44.658Z,55
2017-04-24T10:54:46.473Z,55.2
2017-04-24T10:55:48.279Z,55.2
2017-04-24T10:56:50.088Z,54.9
2017-04-24T10:57:52.552Z,54.8
2017-04-24T10:58:54.359Z,54.4
2017-04-24T10:59:56.177Z,54.6
2017-04-24T11:00:58.337Z,54.7
2017-04-24T11:02:00.532Z,54.3
2017-04-24T11:03:02.335Z,54.1
2017-04-24T11:04:04.153Z,54
2017-04-24T11:05:06.309Z,54
2017-04-24T11:06:08.123Z,53.6
2017-04-24T11:07:09.951Z,53.4
2017-04-24T11:08:11.765Z,53.1
2017-04-24T11:09:13.933Z,53.1
2017-04-24T11:10:16.085Z,53.1
2017-04-24T11:11:17.924Z,53
2017-04-24T11:12:20.079Z,53
2017-04-24T11:13:21.907Z,53
2017-04-24T11:14:24.068Z,53.2
2017-04-24T11:15:25.887Z,53.1
2017-04-24T11:16:27.987Z,52.9
2017-04-24T11:17:29.995Z,52.8
2017-04-24T11:18:31.845Z,52.8
2017-04-24T11:19:33.735Z,52.8
2017-04-24T11:20:35.878Z,52.8
2017-04-24T11:21:37.693Z,53
2017-04-24T11:22:39.501Z,53.2
2017-04-24T11:23:41.310Z,53.1
2017-04-24T11:24:43.118Z,53.2
2017-04-24T11:25:44.933Z,53
2017-04-24T11:26:47.306Z,53.1
2017-04-24T11:27:49.116Z,53.1
2017-04-24T11:28:51.818Z,52.9
2017-04-24T11:29:53.670Z,52.9
2017-04-24T11:30:56.053Z,53
2017-04-24T11:31:57.865Z,53
2017-04-24T11:32:59.949Z,53.1
2017-04-24T11:34:01.800Z,53.2
2017-04-24T11:35:03.662Z,53.2
2017-04-24T11:36:05.523Z,53.3
2017-04-24T11:37:07.348Z,53.4
2017-04-24T11:38:09.154Z,53.3
2017-04-24T11:39:11.337Z,53.3
2017-04-24T11:40:13.143Z,53.4
2017-04-24T11:41:14.959Z,53.6
2017-04-24T11:42:17.103Z,53.5
2017-04-24T11:43:18.937Z,53.6
2017-04-24T11:44:20.755Z,53.9
2017-04-24T11:45:22.666Z,53.9
2017-04-24T11:46:24.523Z,54
2017-04-24T11:47:26.331Z,53.6
2017-04-24T11:48:28.479Z,53.6
2017-04-24T11:49:30.297Z,53.4
2017-04-24T11:50:32.109Z,53.4
2017-04-24T11:51:33.918Z,53.7
2017-04-24T11:52:36.468Z,53.5
2017-04-24T11:53:38.281Z,53.4
2017-04-24T11:54:40.086Z,53.4
2017-04-24T11:55:41.895Z,53.6
2017-04-24T11:56:44.642Z,53.3
2017-04-24T11:57:46.819Z,53.9
2017-04-24T11:58:49.294Z,54
2017-04-24T11:59:51.098Z,54
2017-04-24T12:00:53.235Z,54
2017-04-24T12:01:55.039Z,54
2017-04-24T12:02:57.225Z,54
2017-04-24T12:03:59.036Z,54.1
2017-04-24T12:05:01.205Z,54.3
2017-04-24T12:06:03.968Z,54.3
2017-04-24T12:07:06.315Z,54.3
2017-04-24T12:08:08.124Z,54.3
2017-04-24T12:09:10.806Z,54.3
2017-04-24T12:10:12.667Z,54.3
2017-04-24T12:11:15.094Z,54.2
2017-04-24T12:12:17.510Z,54.4
2017-04-24T12:13:19.365Z,54.4
2017-04-24T12:14:21.173Z,54.4
2017-04-24T12:15:23.352Z,54.5
2017-04-24T12:16:25.159Z,54.5
2017-04-24T12:17:26.976Z,54.6
2017-04-24T12:18:28.785Z,54.7
2017-04-24T12:19:30.621Z,54.6
2017-04-24T12:20:32.843Z,54.5
2017-04-24T12:21:34.705Z,54.5
2017-04-24T12:22:36.557Z,54.5
2017-04-24T12:23:38.363Z,54.5
2017-04-24T12:24:40.172Z,54.5
2017-04-24T12:25:41.974Z,54.3
2017-04-24T12:26:43.789Z,54
2017-04-24T12:27:45.684Z,53.9
2017-04-24T12:28:47.915Z,53.4
2017-04-24T12:29:49.738Z,53.6
2017-04-24T12:30:51.538Z,53.4
2017-04-24T12:31:53.351Z,53.7
2017-04-24T12:32:55.851Z,53.6
2017-04-24T12:33:57.697Z,53.9
2017-04-24T12:34:59.543Z,54
2017-04-24T12:36:01.349Z,54
2017-04-24T12:37:03.232Z,53.9
2017-04-24T12:38:05.573Z,53.9
2017-04-24T12:39:08.005Z,53.9
2017-04-24T12:40:09.855Z,53.9
2017-04-24T12:41:11.659Z,53.9
2017-04-24T12:42:13.513Z,53.9
2017-04-24T12:43:15.409Z,53.9
2017-04-24T12:44:17.225Z,53.9
2017-04-24T12:45:19.029Z,53.9
2017-04-24T12:46:20.841Z,53.9
2017-04-24T12:47:22.648Z,54
2017-04-24T12:48:24.457Z,54.2
2017-04-24T12:49:26.615Z,54.1
2017-04-24T12:50:28.475Z,54
2017-04-24T12:51:30.364Z,54
2017-04-24T12:52:32.190Z,53.8
2017-04-24T12:53:34.000Z,53.8
2017-04-24T12:54:35.806Z,53.8
2017-04-24T12:55:37.610Z,53.8
2017-04-24T12:56:39.425Z,53.9
2017-04-24T12:57:41.230Z,53.7
2017-04-24T12:58:43.045Z,53.7
2017-04-24T12:59:44.849Z,53.8
2017-04-24T13:00:47.566Z,53.8
2017-04-24T13:01:49.714Z,53.4
2017-04-24T13:02:51.567Z,53.7
2017-04-24T13:03:53.382Z,53.8
2017-04-24T13:04:55.528Z,53.9
2017-04-24T13:05:57.636Z,54
2017-04-24T13:06:59.504Z,54.1
2017-04-24T13:08:01.329Z,54
2017-04-24T13:09:03.135Z,54
2017-04-24T13:10:04.941Z,54
2017-04-24T13:11:06.756Z,53.6
2017-04-24T13:12:08.592Z,53.9
2017-04-24T13:13:10.443Z,54
2017-04-24T13:14:12.297Z,54
2017-04-24T13:15:14.398Z,53.8
2017-04-24T13:16:16.442Z,53.9
2017-04-24T13:17:18.272Z,53.7
2017-04-24T13:18:20.078Z,53.7
2017-04-24T13:19:21.890Z,53.6
2017-04-24T13:20:23.702Z,53.8
2017-04-24T13:21:25.506Z,53.4
2017-04-24T13:22:27.389Z,53.4
2017-04-24T13:23:29.252Z,53.4
2017-04-24T13:24:31.057Z,53.2
2017-04-24T13:25:32.870Z,53.3
2017-04-24T13:26:35.054Z,53.5
2017-04-24T13:27:36.865Z,53.2
2017-04-24T13:28:38.691Z,53.2
2017-04-24T13:29:41.179Z,53.2
2017-04-24T13:30:42.989Z,53.2
2017-04-24T13:31:44.798Z,53.3
2017-04-24T13:32:46.608Z,53.3
2017-04-24T13:33:48.422Z,53.1
2017-04-24T13:34:50.640Z,53.1
2017-04-24T13:35:52.470Z,53
2017-04-24T13:36:54.328Z,53.1
2017-04-24T13:37:56.517Z,52.8
2017-04-24T13:38:58.695Z,52.8
2017-04-24T13:40:01.130Z,52.8
2017-04-24T13:41:03.326Z,52.8
2017-04-24T13:42:05.186Z,52.7
2017-04-24T13:43:06.995Z,53.2
2017-04-24T13:44:08.803Z,53
2017-04-24T13:45:10.942Z,53.4
2017-04-24T13:46:12.749Z,53.2
2017-04-24T13:47:14.561Z,53.1
2017-04-24T13:48:16.374Z,53.2
2017-04-24T13:49:18.259Z,53.6
2017-04-24T13:50:20.407Z,53.4
2017-04-24T13:51:22.413Z,53
2017-04-24T13:52:24.275Z,53.2
2017-04-24T13:53:26.740Z,53.3
2017-04-24T13:54:28.554Z,53.3
2017-04-24T13:55:30.695Z,53.3